sensor_id;sensor_type;location;lat;lon;timestamp;temperature;humidity
22456;DHT22;11395;53.204;6.502;2024-03-17T00:00:07;20.30;63.50
22456;DHT22;11395;53.204;6.502;2024-03-17T00:02:36;20.40;64.70
22456;DHT22;11395;53.204;6.502;2024-03-17T00:05:03;20.30;65.00
22456;DHT22;11395;53.204;6.502;2024-03-17T00:07:29;20.30;65.60
22456;DHT22;11395;53.204;6.502;2024-03-17T00:09:55;20.30;65.70
22456;DHT22;11395;53.204;6.502;2024-03-17T00:12:21;20.30;66.00
22456;DHT22;11395;53.204;6.502;2024-03-17T00:14:47;20.30;66.50
22456;DHT22;11395;53.204;6.502;2024-03-17T00:17:14;20.30;66.30
22456;DHT22;11395;53.204;6.502;2024-03-17T00:19:41;20.30;66.60
22456;DHT22;11395;53.204;6.502;2024-03-17T00:22:07;20.30;66.00
22456;DHT22;11395;53.204;6.502;2024-03-17T00:24:35;20.30;66.50
22456;DHT22;11395;53.204;6.502;2024-03-17T00:27:01;20.30;66.00
22456;DHT22;11395;53.204;6.502;2024-03-17T00:29:27;20.30;65.30
22456;DHT22;11395;53.204;6.502;2024-03-17T00:31:54;20.30;64.90
22456;DHT22;11395;53.204;6.502;2024-03-17T00:34:20;20.30;65.00
22456;DHT22;11395;53.204;6.502;2024-03-17T00:36:46;20.30;64.50
22456;DHT22;11395;53.204;6.502;2024-03-17T00:39:12;20.30;64.40
22456;DHT22;11395;53.204;6.502;2024-03-17T00:41:40;20.30;64.50
22456;DHT22;11395;53.204;6.502;2024-03-17T00:44:06;20.30;65.50
22456;DHT22;11395;53.204;6.502;2024-03-17T00:46:32;20.30;64.70
22456;DHT22;11395;53.204;6.502;2024-03-17T00:48:59;20.20;64.60
22456;DHT22;11395;53.204;6.502;2024-03-17T00:51:28;20.30;65.50
22456;DHT22;11395;53.204;6.502;2024-03-17T00:53:54;20.20;65.00
22456;DHT22;11395;53.204;6.502;2024-03-17T00:56:22;20.20;65.30
22456;DHT22;11395;53.204;6.502;2024-03-17T00:58:48;20.20;65.20
22456;DHT22;11395;53.204;6.502;2024-03-17T01:01:17;20.20;65.50
22456;DHT22;11395;53.204;6.502;2024-03-17T01:03:45;20.20;65.80
22456;DHT22;11395;53.204;6.502;2024-03-17T01:06:12;20.20;66.50
22456;DHT22;11395;53.204;6.502;2024-03-17T01:08:38;20.20;65.50
22456;DHT22;11395;53.204;6.502;2024-03-17T01:11:04;20.20;65.40
22456;DHT22;11395;53.204;6.502;2024-03-17T01:13:35;20.20;65.60
22456;DHT22;11395;53.204;6.502;2024-03-17T01:16:03;20.10;66.10
22456;DHT22;11395;53.204;6.502;2024-03-17T01:18:29;20.10;65.50
22456;DHT22;11395;53.204;6.502;2024-03-17T01:20:56;20.10;65.40
22456;DHT22;11395;53.204;6.502;2024-03-17T01:23:22;20.10;65.10
22456;DHT22;11395;53.204;6.502;2024-03-17T01:25:48;20.10;65.30
22456;DHT22;11395;53.204;6.502;2024-03-17T01:28:14;20.10;65.90
22456;DHT22;11395;53.204;6.502;2024-03-17T01:30:40;20.10;65.10
22456;DHT22;11395;53.204;6.502;2024-03-17T01:33:06;20.10;65.40
22456;DHT22;11395;53.204;6.502;2024-03-17T01:35:33;20.00;65.10
22456;DHT22;11395;53.204;6.502;2024-03-17T01:37:59;20.10;65.00
22456;DHT22;11395;53.204;6.502;2024-03-17T01:40:25;20.10;64.90
22456;DHT22;11395;53.204;6.502;2024-03-17T01:42:51;20.00;65.10
22456;DHT22;11395;53.204;6.502;2024-03-17T01:45:30;20.00;64.70
22456;DHT22;11395;53.204;6.502;2024-03-17T01:47:59;20.00;63.00
22456;DHT22;11395;53.204;6.502;2024-03-17T01:50:28;20.00;65.70
22456;DHT22;11395;53.204;6.502;2024-03-17T01:52:59;20.00;65.40
22456;DHT22;11395;53.204;6.502;2024-03-17T01:55:27;20.00;65.40
22456;DHT22;11395;53.204;6.502;2024-03-17T01:57:54;20.00;65.20
22456;DHT22;11395;53.204;6.502;2024-03-17T02:00:20;20.00;63.80
22456;DHT22;11395;53.204;6.502;2024-03-17T02:02:47;20.00;64.40
22456;DHT22;11395;53.204;6.502;2024-03-17T02:05:13;19.90;63.50
22456;DHT22;11395;53.204;6.502;2024-03-17T02:07:39;19.90;63.80
22456;DHT22;11395;53.204;6.502;2024-03-17T02:10:08;20.00;63.70
22456;DHT22;11395;53.204;6.502;2024-03-17T02:12:34;19.90;63.30
22456;DHT22;11395;53.204;6.502;2024-03-17T02:15:01;19.90;63.50
22456;DHT22;11395;53.204;6.502;2024-03-17T02:17:32;19.90;63.50
22456;DHT22;11395;53.204;6.502;2024-03-17T02:19:58;19.90;64.00
22456;DHT22;11395;53.204;6.502;2024-03-17T02:22:25;19.90;63.30
22456;DHT22;11395;53.204;6.502;2024-03-17T02:24:53;19.90;63.70
22456;DHT22;11395;53.204;6.502;2024-03-17T02:27:20;19.80;63.20
22456;DHT22;11395;53.204;6.502;2024-03-17T02:29:46;19.90;62.90
22456;DHT22;11395;53.204;6.502;2024-03-17T02:32:12;19.90;62.60
22456;DHT22;11395;53.204;6.502;2024-03-17T02:34:38;19.90;62.70
22456;DHT22;11395;53.204;6.502;2024-03-17T02:37:05;19.80;63.10
22456;DHT22;11395;53.204;6.502;2024-03-17T02:39:34;19.80;63.30
22456;DHT22;11395;53.204;6.502;2024-03-17T02:42:04;19.80;64.00
22456;DHT22;11395;53.204;6.502;2024-03-17T02:44:31;19.80;64.60
22456;DHT22;11395;53.204;6.502;2024-03-17T02:46:59;19.80;63.40
22456;DHT22;11395;53.204;6.502;2024-03-17T02:49:25;19.80;63.60
22456;DHT22;11395;53.204;6.502;2024-03-17T02:51:53;19.80;63.40
22456;DHT22;11395;53.204;6.502;2024-03-17T02:54:21;19.80;63.90
22456;DHT22;11395;53.204;6.502;2024-03-17T02:56:48;19.80;64.10
22456;DHT22;11395;53.204;6.502;2024-03-17T02:59:14;19.80;63.80
22456;DHT22;11395;53.204;6.502;2024-03-17T03:01:40;19.80;62.90
22456;DHT22;11395;53.204;6.502;2024-03-17T03:04:06;19.80;63.10
22456;DHT22;11395;53.204;6.502;2024-03-17T03:06:33;19.80;63.00
22456;DHT22;11395;53.204;6.502;2024-03-17T03:09:00;19.70;64.10
22456;DHT22;11395;53.204;6.502;2024-03-17T03:11:26;19.70;63.20
22456;DHT22;11395;53.204;6.502;2024-03-17T03:13:52;19.70;63.90
22456;DHT22;11395;53.204;6.502;2024-03-17T03:16:18;19.80;63.30
22456;DHT22;11395;53.204;6.502;2024-03-17T03:18:45;19.70;63.50
22456;DHT22;11395;53.204;6.502;2024-03-17T03:21:11;19.80;63.80
22456;DHT22;11395;53.204;6.502;2024-03-17T03:23:38;19.70;65.10
22456;DHT22;11395;53.204;6.502;2024-03-17T03:26:05;19.70;64.10
22456;DHT22;11395;53.204;6.502;2024-03-17T03:28:32;19.70;63.40
22456;DHT22;11395;53.204;6.502;2024-03-17T03:30:59;19.70;65.10
22456;DHT22;11395;53.204;6.502;2024-03-17T03:33:25;19.60;64.70
22456;DHT22;11395;53.204;6.502;2024-03-17T03:35:52;19.70;64.10
22456;DHT22;11395;53.204;6.502;2024-03-17T03:38:18;19.70;63.70
22456;DHT22;11395;53.204;6.502;2024-03-17T03:40:45;19.70;64.20
22456;DHT22;11395;53.204;6.502;2024-03-17T03:43:14;19.70;64.00
22456;DHT22;11395;53.204;6.502;2024-03-17T03:45:41;19.60;64.40
22456;DHT22;11395;53.204;6.502;2024-03-17T03:48:08;19.60;64.30
22456;DHT22;11395;53.204;6.502;2024-03-17T03:50:38;19.70;64.30
22456;DHT22;11395;53.204;6.502;2024-03-17T03:53:04;19.60;65.20
22456;DHT22;11395;53.204;6.502;2024-03-17T03:55:31;19.60;64.30
22456;DHT22;11395;53.204;6.502;2024-03-17T03:57:57;19.60;64.00
22456;DHT22;11395;53.204;6.502;2024-03-17T04:00:23;19.60;63.90
22456;DHT22;11395;53.204;6.502;2024-03-17T04:02:53;19.60;63.90
22456;DHT22;11395;53.204;6.502;2024-03-17T04:05:19;19.60;64.90
22456;DHT22;11395;53.204;6.502;2024-03-17T04:07:46;19.60;64.20
22456;DHT22;11395;53.204;6.502;2024-03-17T04:10:13;19.60;65.40
22456;DHT22;11395;53.204;6.502;2024-03-17T04:12:40;19.60;64.90
22456;DHT22;11395;53.204;6.502;2024-03-17T04:15:06;19.60;64.10
22456;DHT22;11395;53.204;6.502;2024-03-17T04:17:34;19.60;64.40
22456;DHT22;11395;53.204;6.502;2024-03-17T04:20:00;19.60;64.70
22456;DHT22;11395;53.204;6.502;2024-03-17T04:22:26;19.60;64.20
22456;DHT22;11395;53.204;6.502;2024-03-17T04:24:53;19.60;64.90
22456;DHT22;11395;53.204;6.502;2024-03-17T04:27:20;19.60;64.30
22456;DHT22;11395;53.204;6.502;2024-03-17T04:29:47;19.60;65.30
22456;DHT22;11395;53.204;6.502;2024-03-17T04:32:16;19.60;64.90
22456;DHT22;11395;53.204;6.502;2024-03-17T04:34:42;19.50;64.10
22456;DHT22;11395;53.204;6.502;2024-03-17T04:37:12;19.50;64.20
22456;DHT22;11395;53.204;6.502;2024-03-17T04:39:42;19.60;66.10
22456;DHT22;11395;53.204;6.502;2024-03-17T04:42:12;19.60;65.00
22456;DHT22;11395;53.204;6.502;2024-03-17T04:44:40;19.50;65.10
22456;DHT22;11395;53.204;6.502;2024-03-17T04:47:06;19.50;65.00
22456;DHT22;11395;53.204;6.502;2024-03-17T04:49:35;19.50;64.50
22456;DHT22;11395;53.204;6.502;2024-03-17T04:52:02;19.50;66.10
22456;DHT22;11395;53.204;6.502;2024-03-17T04:54:28;19.50;64.70
22456;DHT22;11395;53.204;6.502;2024-03-17T04:56:54;19.50;64.40
22456;DHT22;11395;53.204;6.502;2024-03-17T04:59:20;19.50;64.40
22456;DHT22;11395;53.204;6.502;2024-03-17T05:01:46;19.50;64.50
22456;DHT22;11395;53.204;6.502;2024-03-17T05:04:14;19.50;64.50
22456;DHT22;11395;53.204;6.502;2024-03-17T05:06:41;19.50;64.90
22456;DHT22;11395;53.204;6.502;2024-03-17T05:09:17;19.50;65.80
22456;DHT22;11395;53.204;6.502;2024-03-17T05:11:43;19.50;66.90
22456;DHT22;11395;53.204;6.502;2024-03-17T05:14:10;19.50;64.70
22456;DHT22;11395;53.204;6.502;2024-03-17T05:16:36;19.50;64.90
22456;DHT22;11395;53.204;6.502;2024-03-17T05:19:02;19.50;64.50
22456;DHT22;11395;53.204;6.502;2024-03-17T05:21:30;19.50;64.90
22456;DHT22;11395;53.204;6.502;2024-03-17T05:24:01;19.50;65.20
22456;DHT22;11395;53.204;6.502;2024-03-17T05:26:27;19.50;66.80
22456;DHT22;11395;53.204;6.502;2024-03-17T05:28:54;19.50;64.70
22456;DHT22;11395;53.204;6.502;2024-03-17T05:31:20;19.50;65.20
22456;DHT22;11395;53.204;6.502;2024-03-17T05:33:48;19.50;65.20
22456;DHT22;11395;53.204;6.502;2024-03-17T05:36:15;19.30;65.30
22456;DHT22;11395;53.204;6.502;2024-03-17T05:38:41;19.40;65.00
22456;DHT22;11395;53.204;6.502;2024-03-17T05:41:08;19.40;64.50
22456;DHT22;11395;53.204;6.502;2024-03-17T05:43:37;19.40;66.30
22456;DHT22;11395;53.204;6.502;2024-03-17T05:46:05;19.40;65.80
22456;DHT22;11395;53.204;6.502;2024-03-17T05:48:35;19.40;65.80
22456;DHT22;11395;53.204;6.502;2024-03-17T05:51:09;19.50;65.30
22456;DHT22;11395;53.204;6.502;2024-03-17T05:53:37;19.40;65.60
22456;DHT22;11395;53.204;6.502;2024-03-17T05:56:06;19.40;65.20
22456;DHT22;11395;53.204;6.502;2024-03-17T05:58:37;19.40;65.60
22456;DHT22;11395;53.204;6.502;2024-03-17T06:01:05;19.40;65.20
22456;DHT22;11395;53.204;6.502;2024-03-17T06:03:33;19.40;65.80
22456;DHT22;11395;53.204;6.502;2024-03-17T06:06:03;19.40;65.50
22456;DHT22;11395;53.204;6.502;2024-03-17T06:08:29;19.30;65.80
22456;DHT22;11395;53.204;6.502;2024-03-17T06:10:56;19.40;65.30
22456;DHT22;11395;53.204;6.502;2024-03-17T06:13:27;19.50;65.20
22456;DHT22;11395;53.204;6.502;2024-03-17T06:15:54;19.40;65.60
22456;DHT22;11395;53.204;6.502;2024-03-17T06:18:20;19.30;65.30
22456;DHT22;11395;53.204;6.502;2024-03-17T06:20:47;19.40;65.00
22456;DHT22;11395;53.204;6.502;2024-03-17T06:23:15;19.40;65.90
22456;DHT22;11395;53.204;6.502;2024-03-17T06:25:47;19.30;65.80
22456;DHT22;11395;53.204;6.502;2024-03-17T06:28:15;19.40;66.90
22456;DHT22;11395;53.204;6.502;2024-03-17T06:30:47;19.40;66.10
22456;DHT22;11395;53.204;6.502;2024-03-17T06:33:20;19.40;63.80
22456;DHT22;11395;53.204;6.502;2024-03-17T06:35:47;19.40;65.60
22456;DHT22;11395;53.204;6.502;2024-03-17T06:38:14;19.40;65.70
22456;DHT22;11395;53.204;6.502;2024-03-17T06:40:48;19.30;65.90
22456;DHT22;11395;53.204;6.502;2024-03-17T06:43:15;19.40;67.20
22456;DHT22;11395;53.204;6.502;2024-03-17T06:45:41;19.40;64.80
22456;DHT22;11395;53.204;6.502;2024-03-17T06:48:07;19.30;64.90
22456;DHT22;11395;53.204;6.502;2024-03-17T06:50:33;19.40;64.60
22456;DHT22;11395;53.204;6.502;2024-03-17T06:52:59;19.30;64.50
22456;DHT22;11395;53.204;6.502;2024-03-17T06:55:25;19.40;64.70
22456;DHT22;11395;53.204;6.502;2024-03-17T06:57:51;19.40;64.60
22456;DHT22;11395;53.204;6.502;2024-03-17T07:00:18;19.40;64.70
22456;DHT22;11395;53.204;6.502;2024-03-17T07:02:44;19.40;64.70
22456;DHT22;11395;53.204;6.502;2024-03-17T07:05:14;19.30;65.00
22456;DHT22;11395;53.204;6.502;2024-03-17T07:07:44;19.40;66.30
22456;DHT22;11395;53.204;6.502;2024-03-17T07:10:11;19.40;65.00
22456;DHT22;11395;53.204;6.502;2024-03-17T07:12:41;19.40;65.30
22456;DHT22;11395;53.204;6.502;2024-03-17T07:15:08;19.40;66.20
22456;DHT22;11395;53.204;6.502;2024-03-17T07:17:34;19.40;64.30
22456;DHT22;11395;53.204;6.502;2024-03-17T07:20:00;19.40;64.90
22456;DHT22;11395;53.204;6.502;2024-03-17T07:22:27;19.40;64.70
22456;DHT22;11395;53.204;6.502;2024-03-17T07:24:54;19.30;64.70
22456;DHT22;11395;53.204;6.502;2024-03-17T07:27:26;19.40;63.80
22456;DHT22;11395;53.204;6.502;2024-03-17T07:29:53;19.40;65.00
22456;DHT22;11395;53.204;6.502;2024-03-17T07:32:19;19.40;64.50
22456;DHT22;11395;53.204;6.502;2024-03-17T07:34:45;19.40;64.30
22456;DHT22;11395;53.204;6.502;2024-03-17T07:37:11;19.40;64.30
22456;DHT22;11395;53.204;6.502;2024-03-17T07:39:37;19.40;64.20
22456;DHT22;11395;53.204;6.502;2024-03-17T07:42:03;19.40;64.20
22456;DHT22;11395;53.204;6.502;2024-03-17T07:44:29;19.40;64.20
22456;DHT22;11395;53.204;6.502;2024-03-17T07:47:03;19.40;64.40
22456;DHT22;11395;53.204;6.502;2024-03-17T07:49:33;19.00;65.70
22456;DHT22;11395;53.204;6.502;2024-03-17T07:51:59;19.40;64.30
22456;DHT22;11395;53.204;6.502;2024-03-17T07:54:26;19.40;64.30
22456;DHT22;11395;53.204;6.502;2024-03-17T07:56:52;19.40;64.50
22456;DHT22;11395;53.204;6.502;2024-03-17T07:59:19;19.40;64.60
22456;DHT22;11395;53.204;6.502;2024-03-17T08:01:45;19.30;64.50
22456;DHT22;11395;53.204;6.502;2024-03-17T08:04:12;19.40;64.50
22456;DHT22;11395;53.204;6.502;2024-03-17T08:06:39;19.40;65.00
22456;DHT22;11395;53.204;6.502;2024-03-17T08:09:07;19.40;65.50
22456;DHT22;11395;53.204;6.502;2024-03-17T08:11:35;19.40;65.20
22456;DHT22;11395;53.204;6.502;2024-03-17T08:14:01;19.40;65.00
22456;DHT22;11395;53.204;6.502;2024-03-17T08:16:27;19.40;64.30
22456;DHT22;11395;53.204;6.502;2024-03-17T08:18:57;19.40;63.20
22456;DHT22;11395;53.204;6.502;2024-03-17T08:21:23;19.40;64.60
22456;DHT22;11395;53.204;6.502;2024-03-17T08:23:50;19.50;64.20
22456;DHT22;11395;53.204;6.502;2024-03-17T08:26:16;19.40;64.50
22456;DHT22;11395;53.204;6.502;2024-03-17T08:28:43;19.40;64.20
22456;DHT22;11395;53.204;6.502;2024-03-17T08:31:09;19.50;63.70
22456;DHT22;11395;53.204;6.502;2024-03-17T08:33:37;19.50;64.10
22456;DHT22;11395;53.204;6.502;2024-03-17T08:36:05;19.40;65.00
22456;DHT22;11395;53.204;6.502;2024-03-17T08:38:32;19.40;64.70
22456;DHT22;11395;53.204;6.502;2024-03-17T08:41:03;19.40;64.70
22456;DHT22;11395;53.204;6.502;2024-03-17T08:43:31;19.50;66.00
22456;DHT22;11395;53.204;6.502;2024-03-17T08:46:03;19.40;64.70
22456;DHT22;11395;53.204;6.502;2024-03-17T08:48:35;19.50;64.00
22456;DHT22;11395;53.204;6.502;2024-03-17T08:51:02;19.40;65.20
22456;DHT22;11395;53.204;6.502;2024-03-17T08:53:29;19.40;65.00
22456;DHT22;11395;53.204;6.502;2024-03-17T08:55:56;19.40;64.70
22456;DHT22;11395;53.204;6.502;2024-03-17T08:58:22;19.40;65.20
22456;DHT22;11395;53.204;6.502;2024-03-17T09:00:49;19.30;64.40
22456;DHT22;11395;53.204;6.502;2024-03-17T09:03:15;19.40;64.80
22456;DHT22;11395;53.204;6.502;2024-03-17T09:05:43;19.30;64.50
22456;DHT22;11395;53.204;6.502;2024-03-17T09:08:24;19.30;65.60
22456;DHT22;11395;53.204;6.502;2024-03-17T09:10:52;19.40;66.50
22456;DHT22;11395;53.204;6.502;2024-03-17T09:13:20;19.40;65.40
22456;DHT22;11395;53.204;6.502;2024-03-17T09:15:51;19.40;65.80
22456;DHT22;11395;53.204;6.502;2024-03-17T09:18:17;19.50;66.90
22456;DHT22;11395;53.204;6.502;2024-03-17T09:20:43;19.40;65.40
22456;DHT22;11395;53.204;6.502;2024-03-17T09:23:09;19.30;65.80
22456;DHT22;11395;53.204;6.502;2024-03-17T09:25:35;19.20;66.00
22456;DHT22;11395;53.204;6.502;2024-03-17T09:28:01;19.30;65.90
22456;DHT22;11395;53.204;6.502;2024-03-17T09:30:27;19.40;65.90
22456;DHT22;11395;53.204;6.502;2024-03-17T09:32:53;19.50;65.40
22456;DHT22;11395;53.204;6.502;2024-03-17T09:35:19;19.60;64.90
22456;DHT22;11395;53.204;6.502;2024-03-17T09:37:45;19.80;64.50
22456;DHT22;11395;53.204;6.502;2024-03-17T09:40:15;19.80;64.60
22456;DHT22;11395;53.204;6.502;2024-03-17T09:42:41;19.90;66.00
22456;DHT22;11395;53.204;6.502;2024-03-17T09:45:10;19.90;65.40
22456;DHT22;11395;53.204;6.502;2024-03-17T09:47:38;19.90;65.10
22456;DHT22;11395;53.204;6.502;2024-03-17T09:50:05;20.00;65.20
22456;DHT22;11395;53.204;6.502;2024-03-17T09:52:39;19.90;65.00
22456;DHT22;11395;53.204;6.502;2024-03-17T09:55:17;20.00;66.00
22456;DHT22;11395;53.204;6.502;2024-03-17T09:57:43;20.10;68.50
22456;DHT22;11395;53.204;6.502;2024-03-17T10:00:11;20.10;65.60
22456;DHT22;11395;53.204;6.502;2024-03-17T10:02:48;20.10;66.20
22456;DHT22;11395;53.204;6.502;2024-03-17T10:05:32;20.20;67.20
22456;DHT22;11395;53.204;6.502;2024-03-17T10:07:58;20.20;68.10
22456;DHT22;11395;53.204;6.502;2024-03-17T10:10:24;20.20;65.70
22456;DHT22;11395;53.204;6.502;2024-03-17T10:12:52;20.30;66.20
22456;DHT22;11395;53.204;6.502;2024-03-17T10:15:18;20.20;67.60
22456;DHT22;11395;53.204;6.502;2024-03-17T10:17:45;20.40;66.80
22456;DHT22;11395;53.204;6.502;2024-03-17T10:23:05;20.30;67.70
22456;DHT22;11395;53.204;6.502;2024-03-17T10:25:34;20.40;67.00
22456;DHT22;11395;53.204;6.502;2024-03-17T10:28:13;20.40;67.00
22456;DHT22;11395;53.204;6.502;2024-03-17T10:30:39;20.40;66.40
22456;DHT22;11395;53.204;6.502;2024-03-17T10:33:07;20.40;66.70
22456;DHT22;11395;53.204;6.502;2024-03-17T10:35:38;20.40;66.50
22456;DHT22;11395;53.204;6.502;2024-03-17T10:38:09;20.40;66.50
22456;DHT22;11395;53.204;6.502;2024-03-17T10:40:35;20.40;66.70
22456;DHT22;11395;53.204;6.502;2024-03-17T10:43:05;20.40;66.10
22456;DHT22;11395;53.204;6.502;2024-03-17T10:45:32;20.40;66.90
22456;DHT22;11395;53.204;6.502;2024-03-17T10:48:08;20.30;67.40
22456;DHT22;11395;53.204;6.502;2024-03-17T10:50:36;20.50;68.00
22456;DHT22;11395;53.204;6.502;2024-03-17T10:53:05;20.50;67.30
22456;DHT22;11395;53.204;6.502;2024-03-17T10:56:03;20.50;67.00
22456;DHT22;11395;53.204;6.502;2024-03-17T10:58:38;20.50;68.50
22456;DHT22;11395;53.204;6.502;2024-03-17T11:01:13;20.50;68.10
22456;DHT22;11395;53.204;6.502;2024-03-17T11:03:39;20.50;66.70
22456;DHT22;11395;53.204;6.502;2024-03-17T11:06:07;20.50;65.70
22456;DHT22;11395;53.204;6.502;2024-03-17T11:08:34;20.50;66.60
22456;DHT22;11395;53.204;6.502;2024-03-17T11:11:02;20.50;66.30
22456;DHT22;11395;53.204;6.502;2024-03-17T11:13:31;20.50;66.10
22456;DHT22;11395;53.204;6.502;2024-03-17T11:15:58;20.60;67.50
22456;DHT22;11395;53.204;6.502;2024-03-17T11:21:22;20.60;65.30
22456;DHT22;11395;53.204;6.502;2024-03-17T11:23:58;20.60;68.00
22456;DHT22;11395;53.204;6.502;2024-03-17T11:26:42;20.70;68.30
22456;DHT22;11395;53.204;6.502;2024-03-17T11:29:26;20.60;67.90
22456;DHT22;11395;53.204;6.502;2024-03-17T11:31:52;20.70;67.90
22456;DHT22;11395;53.204;6.502;2024-03-17T11:34:36;20.70;65.60
22456;DHT22;11395;53.204;6.502;2024-03-17T11:37:05;20.80;67.80
22456;DHT22;11395;53.204;6.502;2024-03-17T11:42:15;20.80;67.90
22456;DHT22;11395;53.204;6.502;2024-03-17T11:44:43;20.70;65.90
22456;DHT22;11395;53.204;6.502;2024-03-17T11:47:09;20.80;66.30
22456;DHT22;11395;53.204;6.502;2024-03-17T11:49:39;20.80;65.10
22456;DHT22;11395;53.204;6.502;2024-03-17T11:52:14;20.70;68.00
22456;DHT22;11395;53.204;6.502;2024-03-17T11:54:42;20.70;67.50
22456;DHT22;11395;53.204;6.502;2024-03-17T11:57:10;20.80;66.30
22456;DHT22;11395;53.204;6.502;2024-03-17T11:59:37;20.90;66.40
22456;DHT22;11395;53.204;6.502;2024-03-17T12:02:18;20.90;65.40
22456;DHT22;11395;53.204;6.502;2024-03-17T12:04:45;20.90;65.20
22456;DHT22;11395;53.204;6.502;2024-03-17T12:07:13;20.90;65.10
22456;DHT22;11395;53.204;6.502;2024-03-17T12:09:44;20.90;66.10
22456;DHT22;11395;53.204;6.502;2024-03-17T12:12:20;20.90;94.20
22456;DHT22;11395;53.204;6.502;2024-03-17T12:14:47;20.90;69.60
22456;DHT22;11395;53.204;6.502;2024-03-17T12:17:15;20.90;70.90
22456;DHT22;11395;53.204;6.502;2024-03-17T12:19:44;21.00;70.50
22456;DHT22;11395;53.204;6.502;2024-03-17T12:22:19;21.00;71.30
22456;DHT22;11395;53.204;6.502;2024-03-17T12:24:51;21.00;69.80
22456;DHT22;11395;53.204;6.502;2024-03-17T12:27:22;20.80;71.50
22456;DHT22;11395;53.204;6.502;2024-03-17T12:29:51;21.00;69.30
22456;DHT22;11395;53.204;6.502;2024-03-17T12:32:21;20.90;71.10
22456;DHT22;11395;53.204;6.502;2024-03-17T12:34:55;21.00;69.50
22456;DHT22;11395;53.204;6.502;2024-03-17T12:37:26;20.90;69.60
22456;DHT22;11395;53.204;6.502;2024-03-17T12:39:57;21.00;70.70
22456;DHT22;11395;53.204;6.502;2024-03-17T12:42:26;20.90;69.50
22456;DHT22;11395;53.204;6.502;2024-03-17T12:44:54;21.00;70.20
22456;DHT22;11395;53.204;6.502;2024-03-17T12:47:22;21.00;70.20
22456;DHT22;11395;53.204;6.502;2024-03-17T12:49:52;21.00;70.00
22456;DHT22;11395;53.204;6.502;2024-03-17T12:52:23;21.00;68.20
22456;DHT22;11395;53.204;6.502;2024-03-17T12:55:06;21.00;70.90
22456;DHT22;11395;53.204;6.502;2024-03-17T13:00:45;21.00;69.70
22456;DHT22;11395;53.204;6.502;2024-03-17T13:03:27;21.00;68.60
22456;DHT22;11395;53.204;6.502;2024-03-17T13:05:54;21.00;71.10
22456;DHT22;11395;53.204;6.502;2024-03-17T13:08:21;21.00;58.40
22456;DHT22;11395;53.204;6.502;2024-03-17T13:10:47;21.00;58.50
22456;DHT22;11395;53.204;6.502;2024-03-17T13:13:13;20.90;58.70
22456;DHT22;11395;53.204;6.502;2024-03-17T13:15:43;21.00;58.70
22456;DHT22;11395;53.204;6.502;2024-03-17T13:18:16;21.00;58.70
22456;DHT22;11395;53.204;6.502;2024-03-17T13:20:43;21.00;58.70
22456;DHT22;11395;53.204;6.502;2024-03-17T13:23:09;21.00;58.60
22456;DHT22;11395;53.204;6.502;2024-03-17T13:25:35;21.00;58.50
22456;DHT22;11395;53.204;6.502;2024-03-17T13:28:03;21.00;58.40
22456;DHT22;11395;53.204;6.502;2024-03-17T13:30:31;21.00;58.40
22456;DHT22;11395;53.204;6.502;2024-03-17T13:32:59;21.00;58.40
22456;DHT22;11395;53.204;6.502;2024-03-17T13:35:27;21.00;58.40
22456;DHT22;11395;53.204;6.502;2024-03-17T13:37:53;21.00;58.30
22456;DHT22;11395;53.204;6.502;2024-03-17T13:40:26;21.00;58.30
22456;DHT22;11395;53.204;6.502;2024-03-17T13:42:53;21.00;58.40
22456;DHT22;11395;53.204;6.502;2024-03-17T13:45:21;21.00;58.40
22456;DHT22;11395;53.204;6.502;2024-03-17T13:47:51;20.90;58.50
22456;DHT22;11395;53.204;6.502;2024-03-17T13:50:18;20.90;58.50
22456;DHT22;11395;53.204;6.502;2024-03-17T13:52:44;20.90;58.50
22456;DHT22;11395;53.204;6.502;2024-03-17T13:55:21;21.00;58.60
22456;DHT22;11395;53.204;6.502;2024-03-17T13:57:50;21.00;58.60
22456;DHT22;11395;53.204;6.502;2024-03-17T14:00:17;21.00;58.50
22456;DHT22;11395;53.204;6.502;2024-03-17T14:02:46;21.00;58.40
22456;DHT22;11395;53.204;6.502;2024-03-17T14:05:13;21.00;58.60
22456;DHT22;11395;53.204;6.502;2024-03-17T14:07:40;21.00;58.10
22456;DHT22;11395;53.204;6.502;2024-03-17T14:10:07;21.00;58.20
22456;DHT22;11395;53.204;6.502;2024-03-17T14:12:37;21.00;58.10
22456;DHT22;11395;53.204;6.502;2024-03-17T14:15:04;21.00;58.50
22456;DHT22;11395;53.204;6.502;2024-03-17T14:17:40;20.90;58.70
22456;DHT22;11395;53.204;6.502;2024-03-17T14:20:07;20.90;59.10
22456;DHT22;11395;53.204;6.502;2024-03-17T14:22:37;20.90;59.10
22456;DHT22;11395;53.204;6.502;2024-03-17T14:25:05;21.00;59.70
22456;DHT22;11395;53.204;6.502;2024-03-17T14:27:31;21.00;58.70
22456;DHT22;11395;53.204;6.502;2024-03-17T14:29:57;21.00;58.40
22456;DHT22;11395;53.204;6.502;2024-03-17T14:32:23;20.70;58.10
22456;DHT22;11395;53.204;6.502;2024-03-17T14:34:49;21.00;58.10
22456;DHT22;11395;53.204;6.502;2024-03-17T14:37:16;21.00;57.90
22456;DHT22;11395;53.204;6.502;2024-03-17T14:39:42;21.00;57.90
22456;DHT22;11395;53.204;6.502;2024-03-17T14:42:08;21.00;57.80
22456;DHT22;11395;53.204;6.502;2024-03-17T14:44:34;21.00;57.70
22456;DHT22;11395;53.204;6.502;2024-03-17T14:47:03;21.00;57.70
22456;DHT22;11395;53.204;6.502;2024-03-17T14:49:33;21.10;57.70
22456;DHT22;11395;53.204;6.502;2024-03-17T14:52:00;21.00;57.70
22456;DHT22;11395;53.204;6.502;2024-03-17T14:54:26;21.00;57.70
22456;DHT22;11395;53.204;6.502;2024-03-17T14:56:52;21.00;57.70
22456;DHT22;11395;53.204;6.502;2024-03-17T14:59:21;21.00;57.60
22456;DHT22;11395;53.204;6.502;2024-03-17T15:01:47;21.10;57.60
22456;DHT22;11395;53.204;6.502;2024-03-17T15:04:14;21.00;58.10
22456;DHT22;11395;53.204;6.502;2024-03-17T15:06:41;21.00;57.50
22456;DHT22;11395;53.204;6.502;2024-03-17T15:09:07;21.00;57.50
22456;DHT22;11395;53.204;6.502;2024-03-17T15:11:34;21.00;57.40
22456;DHT22;11395;53.204;6.502;2024-03-17T15:14:00;21.00;57.60
22456;DHT22;11395;53.204;6.502;2024-03-17T15:16:26;21.00;58.60
22456;DHT22;11395;53.204;6.502;2024-03-17T15:18:52;21.00;58.20
22456;DHT22;11395;53.204;6.502;2024-03-17T15:21:19;20.90;58.30
22456;DHT22;11395;53.204;6.502;2024-03-17T15:23:45;20.90;58.40
22456;DHT22;11395;53.204;6.502;2024-03-17T15:26:11;20.90;58.40
22456;DHT22;11395;53.204;6.502;2024-03-17T15:28:39;20.90;58.50
22456;DHT22;11395;53.204;6.502;2024-03-17T15:31:06;20.90;58.50
22456;DHT22;11395;53.204;6.502;2024-03-17T15:33:33;21.00;58.50
22456;DHT22;11395;53.204;6.502;2024-03-17T15:36:07;21.00;58.90
22456;DHT22;11395;53.204;6.502;2024-03-17T15:38:34;21.00;58.30
22456;DHT22;11395;53.204;6.502;2024-03-17T15:41:10;21.00;58.40
22456;DHT22;11395;53.204;6.502;2024-03-17T15:43:37;21.00;58.90
22456;DHT22;11395;53.204;6.502;2024-03-17T15:46:16;21.00;58.30